Bixby, Minnesota
Current Conditions -  °F | °C
As of 7:54 PM on Saturday 25 Oct 2014 (Local Time) from KTOB Reporting Station
Clear Clear  
Wind Chill: 52°   Ceiling: Unl
Heat Index: 52°   Visibility: 10mi
Dew Point: 28°   Wind: 9mph
Humidity: 41%   Direction: 300°WNW
Pressure: 30.05"   Gusts: NA
Location:  43.9356°N, 93.0454°W
Report Text: KTOB 260054Z AUTO 30008KT 10SM CLR 11/M02 A3005 RMK AO2
Loading
Personal Weather Stations






























Interactive Weather Map
Tropical Storm Tracking
New forecast layout! Learn more

10-Day Weather Forecast

Advertisements
Track Severe Weather on mobile